Terminal Aerodrome Forecast
Issued by NWS Grand Forks, ND

Home | Current Version | Previous Version | Graphics & Text | Print | Product List | Glossary On
Versions: 1 2 3 4 5 6 7 8 9 10 11 12 13 14 15 16 17 18 19
000
FTUS43 KFGF 261000 AAC
TAFFAR
TAF AMD
KFAR 261007Z 2610/2706 36017KT P6SM OVC050
      TEMPO 2610/2613 3SM -SN OVC007
     FM261300 35017KT P6SM SCT025
     FM261500 36015KT P6SM FEW020=

USA.gov is the U.S. government's official web portal to all federal, state and local government web resources and services.